Time;durP1;ratioP1;P1;durP2;ratioP2;P2;SDS_P1;SDS_P2;PMS_P1;PMS_P2;Temp;Humidity;BMP_temperature;BMP_pressure;BME280_temperature;BME280_humidity;BME280_pressure;Samples;Min_cycle;Max_cycle;Signal;HPM_P1;HPM_P2
2022/03/06 00:00:22;;;;;;;51.75;16.27;;;-0.10;99.90;;;;;;5100101;27;20047;-75
2022/03/06 00:02:47;;;;;;;45.15;13.85;;;-0.10;99.90;;;;;;5132796;27;20043;-73
2022/03/06 00:05:14;;;;;;;46.15;14.48;;;-0.10;99.90;;;;;;5133315;27;20758;-75
2022/03/06 00:07:39;;;;;;;49.65;14.35;;;-0.10;99.90;;;;;;5134262;27;20059;-75
2022/03/06 00:10:06;;;;;;;47.20;15.18;;;-0.10;99.90;;;;;;5117231;27;20491;-75
2022/03/06 00:12:32;;;;;;;52.72;16.33;;;-0.10;99.90;;;;;;5133047;27;20122;-74
2022/03/06 00:14:57;;;;;;;51.67;16.75;;;-0.20;99.90;;;;;;5116558;27;20142;-74
2022/03/06 00:17:23;;;;;;;48.13;15.35;;;-0.10;99.90;;;;;;5082579;27;20055;-73
2022/03/06 00:19:49;;;;;;;44.00;15.20;;;-0.20;99.90;;;;;;5117226;27;20443;-76
2022/03/06 00:22:15;;;;;;;48.35;15.40;;;-0.20;99.90;;;;;;5112603;28;20126;-76
2022/03/06 00:24:41;;;;;;;50.08;16.77;;;-0.20;99.90;;;;;;5080390;27;20078;-74
2022/03/06 00:27:07;;;;;;;41.35;13.95;;;-0.30;99.90;;;;;;5115280;27;20047;-75
2022/03/06 00:29:32;;;;;;;54.45;17.95;;;-0.20;99.90;;;;;;5133904;27;20063;-74
2022/03/06 00:31:58;;;;;;;52.60;17.48;;;-0.30;99.90;;;;;;5116347;27;20463;-74
2022/03/06 00:34:24;;;;;;;50.22;16.80;;;-0.30;99.90;;;;;;5116415;27;20047;-74
2022/03/06 00:36:50;;;;;;;62.72;23.88;;;-0.30;99.90;;;;;;5134619;27;20496;-75
2022/03/06 00:39:16;;;;;;;53.67;17.45;;;-0.30;99.90;;;;;;5133154;27;20403;-75
2022/03/06 00:41:41;;;;;;;57.13;19.45;;;-0.30;99.90;;;;;;5132568;27;20039;-74
2022/03/06 00:44:07;;;;;;;55.88;17.25;;;-0.30;99.90;;;;;;5116501;27;20054;-73
2022/03/06 00:46:33;;;;;;;45.97;14.15;;;-0.40;99.90;;;;;;5133181;27;20083;-74
2022/03/06 00:48:59;;;;;;;60.22;20.15;;;-0.30;99.90;;;;;;5133964;27;20090;-74
2022/03/06 00:51:24;;;;;;;62.95;21.17;;;-0.40;99.90;;;;;;5115441;27;20058;-73
2022/03/06 00:53:50;;;;;;;61.83;20.55;;;-0.30;99.90;;;;;;5116239;27;20476;-74
2022/03/06 00:56:16;;;;;;;67.82;20.15;;;-0.40;99.90;;;;;;5113009;27;20072;-74
2022/03/06 00:58:42;;;;;;;58.90;22.17;;;-0.40;99.90;;;;;;5099890;28;20128;-73
2022/03/06 01:01:07;;;;;;;67.35;25.27;;;-0.40;99.90;;;;;;5133798;27;20051;-73
2022/03/06 01:03:33;;;;;;;61.17;20.48;;;-0.40;99.90;;;;;;5082139;27;20047;-73
2022/03/06 01:05:59;;;;;;;58.20;21.95;;;-0.50;99.90;;;;;;5116020;27;20070;-74
2022/03/06 01:08:26;;;;;;;66.22;21.83;;;-0.50;99.90;;;;;;5134278;27;20450;-74
2022/03/06 01:11:13;;;;;;;62.92;20.05;;;-0.50;99.90;;;;;;5080484;27;20507;-73
2022/03/06 01:13:39;;;;;;;60.47;19.73;;;-0.60;99.90;;;;;;5114591;27;20039;-73
2022/03/06 01:16:05;;;;;;;58.60;20.20;;;-0.60;99.90;;;;;;5115822;27;20399;-73
2022/03/06 01:18:31;;;;;;;66.30;20.33;;;-0.60;99.90;;;;;;5120310;27;20104;-74
2022/03/06 01:20:57;;;;;;;64.32;22.08;;;-0.70;99.90;;;;;;5132535;27;20126;-74
2022/03/06 01:23:22;;;;;;;56.55;18.45;;;-0.70;99.90;;;;;;5132452;27;20130;-74
2022/03/06 01:25:48;;;;;;;59.15;20.10;;;-0.60;99.90;;;;;;5131960;27;20069;-73
2022/03/06 01:28:14;;;;;;;62.00;19.23;;;-0.60;99.90;;;;;;5132656;27;20051;-74
2022/03/06 01:30:40;;;;;;;57.42;20.33;;;-0.60;99.90;;;;;;5115471;27;20047;-73
2022/03/06 01:33:06;;;;;;;65.15;20.92;;;-0.60;99.90;;;;;;5098294;27;20046;-73
2022/03/06 01:35:32;;;;;;;60.17;23.63;;;-0.70;99.90;;;;;;5097755;27;20047;-73
2022/03/06 01:37:58;;;;;;;61.53;19.48;;;-0.60;99.90;;;;;;5115576;27;20458;-73
2022/03/06 01:40:24;;;;;;;61.55;20.92;;;-0.70;99.90;;;;;;5100016;27;20443;-74
2022/03/06 01:42:50;;;;;;;57.40;20.52;;;-0.70;99.90;;;;;;5116320;27;20149;-74
2022/03/06 01:45:19;;;;;;;59.47;21.98;;;-0.70;99.90;;;;;;5114584;27;20154;-75
2022/03/06 01:47:47;;;;;;;69.80;24.98;;;-0.70;99.90;;;;;;5132049;27;20043;-73
2022/03/06 01:50:19;;;;;;;58.97;20.05;;;-0.70;99.90;;;;;;5097785;27;20043;-73
2022/03/06 01:52:46;;;;;;;62.72;21.23;;;-0.70;99.90;;;;;;5133563;27;20043;-73
2022/03/06 01:55:13;;;;;;;;;;;-0.70;99.90;;;;;;5132102;27;20047;-74
2022/03/06 01:57:40;;;;;;;54.03;20.60;;;-0.70;99.90;;;;;;5131761;27;19972;-73
2022/03/06 02:00:10;;;;;;;57.25;18.83;;;-0.60;99.90;;;;;;5133011;27;20482;-74
2022/03/06 02:02:36;;;;;;;70.78;25.98;;;-0.60;99.90;;;;;;5114222;27;20035;-73
2022/03/06 02:05:01;;;;;;;59.47;19.50;;;-0.60;99.90;;;;;;5097836;27;20054;-72
2022/03/06 02:07:27;;;;;;;62.83;19.58;;;-0.60;99.90;;;;;;5080267;27;20047;-72
2022/03/06 02:09:54;;;;;;;56.08;19.17;;;-0.60;99.90;;;;;;5114906;27;20050;-73
2022/03/06 02:12:23;;;;;;;65.70;24.20;;;-0.70;99.90;;;;;;5112104;27;20050;-73
2022/03/06 02:14:57;;;;;;;57.35;18.70;;;-0.60;99.90;;;;;;5081163;27;20074;-73
2022/03/06 02:17:24;;;;;;;56.95;19.00;;;-0.70;99.90;;;;;;5098143;27;20147;-74
2022/03/06 02:19:53;;;;;;;59.67;20.17;;;-0.70;99.90;;;;;;5114661;27;20478;-74
2022/03/06 02:22:20;;;;;;;58.40;19.40;;;-0.70;99.90;;;;;;5089785;27;20047;-74
2022/03/06 02:24:46;;;;;;;54.17;17.43;;;-0.80;99.90;;;;;;5132920;27;20051;-76
2022/03/06 02:27:12;;;;;;;65.03;19.75;;;-0.80;99.90;;;;;;5112717;27;20371;-73
2022/03/06 02:29:42;;;;;;;56.45;19.60;;;-0.80;99.90;;;;;;5079991;27;20120;-72
2022/03/06 02:32:14;;;;;;;63.92;23.17;;;-0.80;99.90;;;;;;5096788;27;20100;-74
2022/03/06 02:34:41;;;;;;;55.65;17.30;;;-0.80;99.90;;;;;;5097059;27;20130;-74
2022/03/06 02:37:07;;;;;;;;;;;-0.90;99.90;;;;;;5075492;28;20112;-73
2022/03/06 02:39:33;;;;;;;50.17;16.75;;;-0.90;99.90;;;;;;5076575;28;19920;-73
2022/03/06 02:42:01;;;;;;;49.90;18.50;;;-0.90;99.90;;;;;;5096246;27;20039;-73
2022/03/06 02:44:28;;;;;;;54.70;19.38;;;-0.90;99.90;;;;;;5088628;28;20491;-75
2022/03/06 02:46:54;;;;;;;50.80;17.52;;;-0.90;99.90;;;;;;5131010;27;20039;-73
2022/03/06 02:49:20;;;;;;;57.45;22.55;;;-0.90;99.90;;;;;;5128128;27;20100;-73
2022/03/06 02:51:47;;;;;;;53.88;18.85;;;-0.90;99.90;;;;;;5131709;27;20051;-73
2022/03/06 02:54:17;;;;;;;57.80;22.23;;;-1.00;99.90;;;;;;5096969;27;20138;-73
2022/03/06 02:56:49;;;;;;;55.28;18.40;;;-1.00;99.90;;;;;;5129963;27;20054;-73
2022/03/06 02:59:15;;;;;;;53.53;18.65;;;-1.00;99.90;;;;;;5114319;27;20410;-73
2022/03/06 03:01:42;;;;;;;57.95;20.23;;;-1.10;99.90;;;;;;5130742;27;20079;-73
2022/03/06 03:04:08;;;;;;;50.60;18.58;;;-1.10;99.90;;;;;;5114069;27;20505;-73
2022/03/06 03:06:34;;;;;;;51.80;17.35;;;-1.20;99.90;;;;;;5130832;27;20050;-74
2022/03/06 03:09:02;;;;;;;59.58;21.42;;;-1.10;99.90;;;;;;5131178;27;20044;-74
2022/03/06 03:11:31;;;;;;;62.25;19.77;;;-1.00;99.90;;;;;;5102408;27;20043;-74
2022/03/06 03:13:57;;;;;;;54.40;18.90;;;-1.10;99.90;;;;;;5096884;27;20055;-73
2022/03/06 03:16:23;;;;;;;47.88;17.17;;;-1.10;99.90;;;;;;5109271;28;20122;-75
2022/03/06 03:18:48;;;;;;;57.10;19.60;;;-1.00;99.90;;;;;;5043076;28;20457;-73
2022/03/06 03:21:14;;;;;;;56.65;19.95;;;-1.00;99.90;;;;;;5095038;27;20048;-73
2022/03/06 03:23:40;;;;;;;55.15;18.38;;;-1.00;99.90;;;;;;5096383;28;20337;-74
2022/03/06 03:26:06;;;;;;;47.47;17.52;;;-0.90;99.90;;;;;;5129972;27;20059;-73
2022/03/06 03:28:31;;;;;;;57.53;21.40;;;-1.00;99.90;;;;;;5131068;28;20072;-73
2022/03/06 03:31:00;;;;;;;50.75;17.85;;;-0.90;99.90;;;;;;5131256;28;20043;-74
2022/03/06 03:33:26;;;;;;;52.72;19.45;;;-0.90;99.90;;;;;;5112841;28;20088;-75
2022/03/06 03:35:51;;;;;;;51.70;18.40;;;-1.00;99.90;;;;;;5105239;28;20050;-73
2022/03/06 03:38:17;;;;;;;55.38;22.15;;;-1.00;99.90;;;;;;5130878;28;20371;-74
2022/03/06 03:40:43;;;;;;;39.53;14.18;;;-0.90;99.90;;;;;;5094204;28;20054;-74
2022/03/06 03:43:09;;;;;;;46.50;16.75;;;-0.90;99.90;;;;;;5100083;28;20054;-74
2022/03/06 03:45:35;;;;;;;49.95;17.33;;;-0.90;99.90;;;;;;5092084;28;20061;-74
2022/03/06 03:48:01;;;;;;;48.58;17.70;;;-0.70;99.90;;;;;;5076544;28;20047;-72
2022/03/06 03:50:27;;;;;;;50.67;18.33;;;-0.90;99.90;;;;;;5109599;28;20517;-74
2022/03/06 03:52:52;;;;;;;44.05;17.63;;;-0.90;99.90;;;;;;5092905;28;20044;-73
2022/03/06 03:55:18;;;;;;;51.58;18.60;;;-1.00;99.90;;;;;;5074414;28;20407;-73
2022/03/06 03:57:44;;;;;;;41.85;17.90;;;-1.00;99.90;;;;;;5129454;28;20115;-73
2022/03/06 04:00:11;;;;;;;50.90;16.77;;;-1.10;99.90;;;;;;5131346;28;20143;-73
2022/03/06 04:02:36;;;;;;;43.85;14.88;;;-1.00;99.90;;;;;;5112536;28;20043;-73
2022/03/06 04:05:03;;;;;;;43.97;16.25;;;-1.00;99.90;;;;;;5130426;28;20529;-74
2022/03/06 04:07:29;;;;;;;42.43;16.63;;;-0.90;99.90;;;;;;5129505;28;20078;-73
2022/03/06 04:09:55;;;;;;;41.72;15.88;;;-0.80;99.90;;;;;;5129437;28;20323;-73
2022/03/06 04:12:21;;;;;;;42.35;16.58;;;-0.80;99.90;;;;;;5111522;28;20039;-72
2022/03/06 04:14:46;;;;;;;49.92;20.92;;;-0.80;99.90;;;;;;5129260;28;20090;-73
2022/03/06 04:17:12;;;;;;;32.50;13.18;;;-0.70;99.90;;;;;;5129644;28;20093;-74
2022/03/06 04:19:38;;;;;;;47.00;20.52;;;-0.70;99.90;;;;;;5129733;28;20047;-74
2022/03/06 04:22:04;;;;;;;32.35;12.43;;;-0.70;99.90;;;;;;5078599;28;20046;-73
2022/03/06 04:24:30;;;;;;;40.83;16.80;;;-0.60;99.90;;;;;;5075350;28;20442;-74
2022/03/06 04:26:55;;;;;;;43.03;16.65;;;-0.70;99.90;;;;;;5108991;28;20479;-74
2022/03/06 04:29:21;;;;;;;50.75;18.40;;;-0.60;99.90;;;;;;5110934;28;20479;-73
2022/03/06 04:31:47;;;;;;;47.67;16.73;;;-0.70;99.90;;;;;;5114216;27;20078;-73
2022/03/06 04:34:16;;;;;;;45.90;17.88;;;-0.80;99.90;;;;;;5133738;27;20043;-74
2022/03/06 04:36:42;;;;;;;40.80;15.75;;;-0.80;99.90;;;;;;5115175;27;20099;-73
2022/03/06 04:39:08;;;;;;;48.42;17.98;;;-0.80;99.90;;;;;;5135061;27;20047;-73
2022/03/06 04:41:34;;;;;;;41.13;17.08;;;-0.80;99.90;;;;;;5098701;28;20043;-73
2022/03/06 04:44:00;;;;;;;50.33;17.45;;;-0.80;99.90;;;;;;5095905;28;20131;-73
2022/03/06 04:46:26;;;;;;;41.05;16.23;;;-0.90;99.90;;;;;;5062283;28;20044;-73
2022/03/06 04:48:52;;;;;;;46.17;17.48;;;-0.80;99.90;;;;;;5096014;28;20063;-74
2022/03/06 04:51:18;;;;;;;45.72;17.27;;;-0.80;99.90;;;;;;5078480;28;20043;-74
2022/03/06 04:53:44;;;;;;;46.05;16.80;;;-1.00;99.90;;;;;;5095288;28;20096;-73
2022/03/06 04:56:10;;;;;;;40.92;17.60;;;-1.10;99.90;;;;;;5118180;27;20039;-73
2022/03/06 04:58:36;;;;;;;34.45;14.73;;;-1.00;99.90;;;;;;5132754;27;20051;-73
2022/03/06 05:01:03;;;;;;;39.30;17.05;;;-1.00;99.90;;;;;;5115502;27;20055;-73
2022/03/06 05:03:29;;;;;;;35.85;16.13;;;-0.90;99.90;;;;;;5116277;27;20051;-75
2022/03/06 05:05:55;;;;;;;42.05;19.85;;;-0.90;99.90;;;;;;5132796;27;20039;-73
2022/03/06 05:08:21;;;;;;;44.55;17.63;;;-0.90;99.90;;;;;;5133562;27;20236;-74
2022/03/06 05:10:47;;;;;;;36.60;16.60;;;-0.90;99.90;;;;;;5122113;27;20097;-74
2022/03/06 05:13:13;;;;;;;36.38;15.40;;;-0.90;99.90;;;;;;5116295;27;20716;-74
2022/03/06 05:15:40;;;;;;;34.70;15.57;;;-0.90;99.90;;;;;;5131263;27;20070;-75
2022/03/06 05:18:07;;;;;;;35.00;15.63;;;-0.90;99.90;;;;;;5133276;27;20580;-73
2022/03/06 05:20:32;;;;;;;39.47;17.08;;;-0.90;99.90;;;;;;5131310;27;20050;-74
2022/03/06 05:22:58;;;;;;;37.40;17.65;;;-0.90;99.90;;;;;;5132863;27;20482;-73
2022/03/06 05:25:24;;;;;;;37.20;16.52;;;-1.00;99.90;;;;;;5130747;27;20047;-73
2022/03/06 05:27:52;;;;;;;40.22;18.50;;;-1.00;99.90;;;;;;5133468;27;20047;-74
2022/03/06 05:30:18;;;;;;;41.10;17.88;;;-0.80;99.90;;;;;;5114982;27;20495;-74
2022/03/06 05:32:44;;;;;;;40.15;16.58;;;-1.00;99.90;;;;;;5132031;27;20082;-74
2022/03/06 05:35:12;;;;;;;40.75;17.23;;;-0.90;99.90;;;;;;5133377;27;20141;-75
2022/03/06 05:37:39;;;;;;;33.92;14.20;;;-0.90;99.90;;;;;;5114776;27;20054;-74
2022/03/06 05:40:06;;;;;;;33.90;16.60;;;-0.90;99.90;;;;;;5115149;27;20482;-73
2022/03/06 05:42:34;;;;;;;45.10;16.10;;;-0.90;99.90;;;;;;5119111;27;20391;-74
2022/03/06 05:45:00;;;;;;;39.35;16.85;;;-0.80;99.90;;;;;;5094767;28;20092;-73
2022/03/06 05:47:26;;;;;;;38.65;15.80;;;-1.00;99.90;;;;;;5077179;28;20043;-73
2022/03/06 05:49:52;;;;;;;37.30;18.10;;;-1.00;99.90;;;;;;5111983;28;20487;-74
2022/03/06 05:52:21;;;;;;;43.67;21.30;;;-0.90;99.90;;;;;;5094018;28;20089;-74
2022/03/06 05:54:46;;;;;;;32.03;14.68;;;-0.70;99.90;;;;;;5093797;28;20086;-73
2022/03/06 05:57:12;;;;;;;37.58;15.93;;;-0.80;99.90;;;;;;5092347;28;20471;-73
2022/03/06 05:59:38;;;;;;;35.97;17.58;;;-0.90;99.90;;;;;;5104853;27;20039;-74
2022/03/06 06:02:04;;;;;;;34.90;13.95;;;-0.80;99.90;;;;;;5131615;27;20043;-73
2022/03/06 06:04:30;;;;;;;31.83;14.98;;;-0.80;99.90;;;;;;5131986;27;20062;-73
2022/03/06 06:06:55;;;;;;;37.25;16.30;;;-0.80;99.90;;;;;;5132232;27;20035;-74
2022/03/06 06:09:21;;;;;;;35.70;16.13;;;-0.80;99.90;;;;;;5114943;27;20047;-73
2022/03/06 06:11:47;;;;;;;36.63;15.65;;;-0.80;99.90;;;;;;5130193;27;20039;-73
2022/03/06 06:14:13;;;;;;;38.45;14.60;;;-0.70;99.90;;;;;;5131737;27;20055;-74
2022/03/06 06:16:39;;;;;;;28.33;11.70;;;-0.70;99.90;;;;;;5131498;27;20047;-74
2022/03/06 06:19:05;;;;;;;28.25;11.15;;;-0.70;99.90;;;;;;5147369;27;20043;-74
2022/03/06 06:21:31;;;;;;;25.10;9.38;;;-0.60;99.90;;;;;;5126541;27;20081;-74
2022/03/06 06:23:57;;;;;;;31.13;12.93;;;-0.60;99.90;;;;;;5092797;28;20164;-73
2022/03/06 06:26:26;;;;;;;29.83;12.63;;;-0.50;99.90;;;;;;5075019;28;20414;-73
2022/03/06 06:28:56;;;;;;;29.80;13.15;;;-0.50;99.90;;;;;;5093246;28;20483;-74
2022/03/06 06:31:25;;;;;;;29.70;9.82;;;-0.40;99.90;;;;;;5093277;28;20268;-74
2022/03/06 06:33:51;;;;;;;25.55;9.75;;;-0.30;99.90;;;;;;5076193;28;20139;-74
2022/03/06 06:36:17;;;;;;;27.40;10.73;;;-0.30;99.90;;;;;;5106318;27;20043;-74
2022/03/06 06:38:44;;;;;;;27.05;10.57;;;-0.20;99.90;;;;;;5099571;27;20054;-72
2022/03/06 06:41:10;;;;;;;23.67;10.68;;;-0.20;99.90;;;;;;5112161;27;20042;-73
2022/03/06 06:43:38;;;;;;;27.70;9.35;;;-0.10;99.90;;;;;;5113924;27;20134;-75
2022/03/06 06:46:04;;;;;;;24.55;9.98;;;-0.20;99.90;;;;;;5112883;27;20043;-73
2022/03/06 06:48:30;;;;;;;24.25;11.68;;;-0.20;99.90;;;;;;5113813;27;20054;-74
2022/03/06 06:50:56;;;;;;;25.35;10.85;;;-0.10;99.90;;;;;;5116260;27;20038;-74
2022/03/06 06:53:21;;;;;;;24.17;10.13;;;-0.10;99.90;;;;;;5130803;27;20479;-74
2022/03/06 06:55:47;;;;;;;25.17;11.43;;;-0.10;99.90;;;;;;5111177;27;20050;-72
2022/03/06 06:58:13;;;;;;;26.70;10.30;;;0.00;99.90;;;;;;5113590;27;20050;-74
2022/03/06 07:00:39;;;;;;;24.55;9.70;;;0.10;99.90;;;;;;5112967;27;20059;-74
2022/03/06 07:03:05;;;;;;;25.15;9.35;;;0.20;99.90;;;;;;5131283;27;20043;-74
2022/03/06 07:05:30;;;;;;;23.40;10.32;;;0.20;99.90;;;;;;5130650;27;20100;-74
2022/03/06 07:07:56;;;;;;;21.75;8.85;;;0.30;99.90;;;;;;5096377;27;20051;-73
2022/03/06 07:10:22;;;;;;;19.42;7.28;;;0.40;99.90;;;;;;5125893;27;20047;-75
2022/03/06 07:12:53;;;;;;;20.08;8.82;;;0.40;99.90;;;;;;5110904;28;20047;-73
2022/03/06 07:15:20;;;;;;;20.90;7.13;;;0.50;99.90;;;;;;5076420;28;20058;-74
2022/03/06 07:17:46;;;;;;;17.75;7.55;;;0.60;99.90;;;;;;5106539;27;20130;-74
2022/03/06 07:20:12;;;;;;;23.27;7.43;;;0.60;99.90;;;;;;5113391;27;20134;-73
2022/03/06 07:22:38;;;;;;;21.50;9.38;;;0.70;99.90;;;;;;5096545;27;20046;-74
2022/03/06 07:25:05;;;;;;;15.52;6.10;;;0.70;99.90;;;;;;5095706;28;20471;-72
2022/03/06 07:27:30;;;;;;;18.83;7.33;;;0.80;99.90;;;;;;5129741;28;20478;-74
2022/03/06 07:29:57;;;;;;;16.90;7.15;;;0.90;99.90;;;;;;5112780;28;20299;-73
2022/03/06 07:32:23;;;;;;;24.07;8.03;;;0.90;99.90;;;;;;5119403;28;20110;-72
2022/03/06 07:34:49;;;;;;;16.85;7.55;;;1.00;99.90;;;;;;5121250;28;20071;-73
2022/03/06 07:37:15;;;;;;;18.55;8.30;;;1.00;99.90;;;;;;5131033;28;20098;-73
2022/03/06 07:39:42;;;;;;;18.20;7.43;;;1.10;99.90;;;;;;5113468;28;20055;-74
2022/03/06 07:42:07;;;;;;;19.00;8.43;;;1.00;99.90;;;;;;5113414;28;20058;-73
2022/03/06 07:44:36;;;;;;;22.77;8.00;;;1.00;99.90;;;;;;5131676;28;20398;-75
2022/03/06 07:47:02;;;;;;;21.48;7.75;;;1.00;99.90;;;;;;5113141;28;20091;-74
2022/03/06 07:49:28;;;;;;;22.52;8.85;;;1.00;99.90;;;;;;5112984;28;20050;-74
2022/03/06 07:51:57;;;;;;;19.80;8.00;;;1.00;99.90;;;;;;5112206;28;20470;-74
2022/03/06 07:54:22;;;;;;;19.63;8.23;;;0.90;99.90;;;;;;5109667;28;20116;-73
2022/03/06 07:56:49;;;;;;;19.50;7.93;;;0.90;99.90;;;;;;5110870;28;20047;-74
2022/03/06 07:59:18;;;;;;;21.23;8.70;;;0.90;99.90;;;;;;5131512;27;20039;-74
2022/03/06 08:01:44;;;;;;;18.13;8.00;;;0.90;99.90;;;;;;5111283;28;20049;-74
2022/03/06 08:04:10;;;;;;;23.75;8.68;;;1.00;99.90;;;;;;5129821;28;20515;-73
2022/03/06 08:06:36;;;;;;;23.25;9.07;;;1.00;99.90;;;;;;5133002;27;20477;-75
2022/03/06 08:09:04;;;;;;;19.50;7.13;;;1.10;99.90;;;;;;5133543;27;20133;-74
2022/03/06 08:11:33;;;;;;;18.95;6.57;;;1.10;99.90;;;;;;5131860;27;20051;-75
2022/03/06 08:13:59;;;;;;;18.75;6.45;;;1.20;99.90;;;;;;5108876;27;20035;-73
2022/03/06 08:16:24;;;;;;;21.33;9.63;;;1.30;99.90;;;;;;5116570;27;20055;-74
2022/03/06 08:18:50;;;;;;;19.60;8.90;;;1.30;99.90;;;;;;5134033;27;20055;-76
2022/03/06 08:21:16;;;;;;;14.48;5.40;;;1.30;99.90;;;;;;5078975;27;20036;-75
2022/03/06 08:23:42;;;;;;;18.15;6.55;;;1.40;99.90;;;;;;5091597;27;20053;-73
2022/03/06 08:26:08;;;;;;;17.52;5.43;;;1.40;99.90;;;;;;5114248;27;20051;-72
2022/03/06 08:28:34;;;;;;;14.50;5.78;;;1.50;99.90;;;;;;5100244;27;20047;-76
2022/03/06 08:31:00;;;;;;;18.42;5.93;;;1.50;99.90;;;;;;5115048;27;20039;-74
2022/03/06 08:33:26;;;;;;;17.63;5.65;;;1.50;99.90;;;;;;5133820;27;20058;-75
2022/03/06 08:35:52;;;;;;;16.10;6.90;;;1.60;99.90;;;;;;5134592;27;20054;-75
2022/03/06 08:38:19;;;;;;;21.83;4.97;;;1.60;99.90;;;;;;5116892;27;20403;-74
2022/03/06 08:40:45;;;;;;;14.63;5.28;;;1.70;99.90;;;;;;5097488;27;20097;-73
2022/03/06 08:43:10;;;;;;;15.15;6.40;;;1.70;99.90;;;;;;5132949;27;20058;-74
2022/03/06 08:45:37;;;;;;;14.02;5.40;;;1.70;99.90;;;;;;5115693;27;20115;-74
2022/03/06 08:48:04;;;;;;;13.02;5.18;;;1.80;99.90;;;;;;5115771;27;20216;-73
2022/03/06 08:50:30;;;;;;;13.43;5.38;;;1.80;99.90;;;;;;5115275;27;20069;-74
2022/03/06 08:52:56;;;;;;;12.85;5.90;;;1.90;99.90;;;;;;5133839;27;20530;-76
2022/03/06 08:55:22;;;;;;;10.82;4.40;;;2.00;99.90;;;;;;5131193;27;20051;-73
2022/03/06 08:57:48;;;;;;;14.50;5.07;;;2.10;99.90;;;;;;5100671;28;20049;-73
2022/03/06 09:00:14;;;;;;;13.15;4.47;;;2.30;99.90;;;;;;5094702;28;20150;-73
2022/03/06 09:02:40;;;;;;;11.95;4.07;;;2.30;99.90;;;;;;5062465;28;20047;-73
2022/03/06 09:05:06;;;;;;;15.32;6.35;;;2.40;99.90;;;;;;5113144;28;20055;-73
2022/03/06 09:07:32;;;;;;;10.27;4.35;;;2.40;99.90;;;;;;5094711;28;20486;-73
2022/03/06 09:09:58;;;;;;;10.35;4.43;;;2.40;99.90;;;;;;5102569;27;20054;-73
2022/03/06 09:12:26;;;;;;;12.18;5.25;;;2.50;99.90;;;;;;5095554;27;20097;-72
2022/03/06 09:14:53;;;;;;;12.90;4.90;;;2.60;99.90;;;;;;5094999;28;20055;-74
2022/03/06 09:17:19;;;;;;;13.60;4.50;;;2.70;99.90;;;;;;5116094;27;20482;-72
2022/03/06 09:19:45;;;;;;;11.67;4.23;;;2.70;99.90;;;;;;5115826;27;20047;-75
2022/03/06 09:22:11;;;;;;;14.00;5.32;;;2.70;99.90;;;;;;5132637;27;20322;-73
2022/03/06 09:24:37;;;;;;;10.57;4.60;;;2.70;99.90;;;;;;5098920;27;20164;-74
2022/03/06 09:27:03;;;;;;;14.57;5.75;;;2.80;99.90;;;;;;5112797;27;20398;-74
2022/03/06 09:29:29;;;;;;;14.65;5.07;;;2.80;99.90;;;;;;5081996;27;20043;-74
2022/03/06 09:31:55;;;;;;;15.00;4.75;;;2.90;99.90;;;;;;5097526;27;20444;-74
2022/03/06 09:34:21;;;;;;;14.25;5.43;;;2.90;99.90;;;;;;5133249;27;20543;-74
2022/03/06 09:36:47;;;;;;;13.65;3.67;;;2.90;99.90;;;;;;5133251;27;20088;-73
2022/03/06 09:39:14;;;;;;;10.90;4.75;;;3.10;99.90;;;;;;5133143;27;20047;-74
2022/03/06 09:41:41;;;;;;;11.75;5.47;;;3.10;99.90;;;;;;5125557;27;20047;-73
2022/03/06 09:44:08;;;;;;;10.80;4.40;;;3.10;99.90;;;;;;5094431;28;20100;-73
2022/03/06 09:46:35;;;;;;;14.98;6.20;;;3.20;99.90;;;;;;5094472;28;20051;-74
2022/03/06 09:49:02;;;;;;;;;;;3.10;99.90;;;;;;5097095;27;20079;-72
2022/03/06 09:51:40;;;;;;;12.20;4.88;;;3.10;99.90;;;;;;5113033;27;20364;-74
2022/03/06 09:54:10;;;;;;;13.18;5.70;;;3.20;99.90;;;;;;5131604;27;20047;-73
2022/03/06 09:56:36;;;;;;;19.33;7.53;;;3.20;99.90;;;;;;5112969;27;20083;-73
2022/03/06 09:59:02;;;;;;;13.60;6.03;;;3.30;99.90;;;;;;5133108;27;20104;-75
2022/03/06 10:01:28;;;;;;;19.15;6.15;;;3.30;99.90;;;;;;5131352;27;20058;-75
2022/03/06 10:03:54;;;;;;;13.13;5.22;;;3.40;99.90;;;;;;5132243;27;20055;-73
2022/03/06 10:06:21;;;;;;;14.80;4.88;;;3.40;99.90;;;;;;5131183;27;20484;-75
2022/03/06 10:08:47;;;;;;;14.23;6.13;;;3.40;99.90;;;;;;5133442;27;20429;-73
2022/03/06 10:11:14;;;;;;;17.55;5.50;;;3.40;99.90;;;;;;5113976;27;20357;-73
2022/03/06 10:13:44;;;;;;;13.45;5.47;;;3.40;99.90;;;;;;5097845;27;20043;-73
2022/03/06 10:16:23;;;;;;;16.98;5.50;;;3.40;99.90;;;;;;5098998;28;20055;-73
2022/03/06 10:18:56;;;;;;;12.43;5.18;;;3.60;99.90;;;;;;5111400;28;20059;-73
2022/03/06 10:21:27;;;;;;;14.00;5.90;;;3.50;99.90;;;;;;5105917;28;20039;-73
2022/03/06 10:23:58;;;;;;;14.40;5.97;;;3.60;99.90;;;;;;5125468;27;20517;-74
2022/03/06 10:26:30;;;;;;;19.63;7.28;;;3.70;99.90;;;;;;5128839;27;20055;-74
2022/03/06 10:29:00;;;;;;;15.43;5.60;;;3.60;99.90;;;;;;5131551;27;20062;-75
2022/03/06 10:31:31;;;;;;;17.38;8.10;;;3.70;99.90;;;;;;5131599;27;20122;-74
2022/03/06 10:34:09;;;;;;;12.48;4.88;;;3.80;99.90;;;;;;5132759;27;20096;-74
2022/03/06 10:36:40;;;;;;;12.50;5.18;;;3.70;99.90;;;;;;5131253;27;20051;-74
2022/03/06 10:39:10;;;;;;;14.93;5.60;;;3.70;99.90;;;;;;5132551;27;20097;-74
2022/03/06 10:41:42;;;;;;;16.35;6.05;;;3.80;99.90;;;;;;5112375;27;20054;-75
2022/03/06 10:44:10;;;;;;;15.40;6.30;;;3.70;99.90;;;;;;5129011;27;20567;-75
2022/03/06 10:46:37;;;;;;;15.43;6.35;;;3.80;99.90;;;;;;5124810;27;20445;-73
2022/03/06 10:49:15;;;;;;;12.75;5.65;;;3.80;99.90;;;;;;5110978;28;20054;-72
2022/03/06 10:51:41;;;;;;;13.45;5.60;;;3.80;99.90;;;;;;5093250;28;20048;-73
2022/03/06 10:54:07;;;;;;;13.45;5.43;;;3.90;99.90;;;;;;5111662;28;20097;-74
2022/03/06 10:56:33;;;;;;;14.63;5.72;;;3.90;99.90;;;;;;5102735;27;20047;-73
2022/03/06 10:58:59;;;;;;;11.50;5.13;;;4.00;99.90;;;;;;5131140;27;20126;-74
2022/03/06 11:01:26;;;;;;;11.60;4.70;;;4.10;99.90;;;;;;5129867;27;20055;-73
2022/03/06 11:03:52;;;;;;;15.60;5.30;;;4.10;99.90;;;;;;5113838;27;20717;-74
2022/03/06 11:06:19;;;;;;;17.05;5.97;;;4.10;99.90;;;;;;5129486;27;20601;-74
2022/03/06 11:08:46;;;;;;;14.15;5.40;;;4.00;99.90;;;;;;5113703;27;20490;-75
2022/03/06 11:11:15;;;;;;;13.68;4.78;;;4.10;99.90;;;;;;5088626;28;20102;-75
2022/03/06 11:13:42;;;;;;;12.27;5.80;;;4.20;99.90;;;;;;5091405;28;20048;-74
2022/03/06 11:16:08;;;;;;;13.77;5.60;;;4.10;99.90;;;;;;5089170;28;20071;-73
2022/03/06 11:18:34;;;;;;;13.43;6.50;;;4.20;99.90;;;;;;5122514;27;20058;-74
2022/03/06 11:21:03;;;;;;;11.30;4.05;;;4.20;96.10;;;;;;5111881;28;20051;-73
2022/03/06 11:23:34;;;;;;;13.57;5.10;;;4.30;99.90;;;;;;5130179;27;20084;-74
2022/03/06 11:26:09;;;;;;;7.25;3.50;;;4.40;99.90;;;;;;5130377;27;20351;-73
2022/03/06 11:29:13;;;;;;;11.70;5.75;;;4.50;99.90;;;;;;5108457;28;20047;-73
2022/03/06 11:31:45;;;;;;;10.77;4.57;;;4.40;94.00;;;;;;5110969;28;20118;-74
2022/03/06 11:34:12;;;;;;;9.02;3.78;;;4.50;99.90;;;;;;5109563;28;20039;-75
2022/03/06 11:36:46;;;;;;;9.43;3.50;;;4.50;99.90;;;;;;5109844;28;20052;-74
2022/03/06 11:39:35;;;;;;;10.38;4.30;;;4.60;99.90;;;;;;5092712;28;20125;-75
2022/03/06 11:42:03;;;;;;;11.60;3.97;;;4.60;96.90;;;;;;5104621;28;20039;-74
2022/03/06 11:44:36;;;;;;;10.07;4.63;;;4.60;99.40;;;;;;5124174;27;20079;-73
2022/03/06 11:47:21;;;;;;;10.93;3.60;;;4.60;94.80;;;;;;5117383;27;20047;-74
2022/03/06 11:50:01;;;;;;;9.35;4.07;;;4.80;99.90;;;;;;5105704;28;20488;-74
2022/03/06 11:52:28;;;;;;;11.40;4.32;;;4.70;93.50;;;;;;5114285;28;20043;-73
2022/03/06 11:54:54;;;;;;;;;;;4.80;99.90;;;;;;5080368;28;20035;-73
2022/03/06 11:57:40;;;;;;;13.48;5.65;;;4.80;95.70;;;;;;5129147;27;19919;-73
2022/03/06 12:00:15;;;;;;;10.63;3.90;;;4.80;90.70;;;;;;5115413;28;20126;-74
2022/03/06 12:02:56;;;;;;;12.55;4.80;;;4.80;92.00;;;;;;5127555;27;20050;-74
2022/03/06 12:05:44;;;;;;;10.68;3.65;;;4.80;90.20;;;;;;5133834;27;20446;-74
2022/03/06 12:08:11;;;;;;;8.68;3.28;;;4.90;99.90;;;;;;5116954;27;20138;-75
2022/03/06 12:10:41;;;;;;;10.88;4.75;;;5.00;99.90;;;;;;5114979;27;20050;-74
2022/03/06 12:13:21;;;;;;;9.35;3.22;;;5.10;88.60;;;;;;5134221;27;20479;-73
2022/03/06 12:16:03;;;;;;;11.63;2.53;;;5.10;99.90;;;;;;5115207;27;20050;-75
2022/03/06 12:18:30;;;;;;;9.77;3.35;;;5.30;99.90;;;;;;5116713;27;20355;-74
2022/03/06 12:20:56;;;;;;;12.83;4.93;;;5.40;99.90;;;;;;5099235;27;20047;-76
2022/03/06 12:23:25;;;;;;;7.65;3.17;;;5.30;94.30;;;;;;5079186;28;20048;-73
2022/03/06 12:25:57;;;;;;;10.88;3.22;;;5.40;99.90;;;;;;5078004;28;20054;-75
2022/03/06 12:28:41;;;;;;;11.32;4.28;;;5.30;99.90;;;;;;5078783;28;20056;-74
2022/03/06 12:31:30;;;;;;;9.55;3.53;;;5.30;99.90;;;;;;5114276;28;20138;-74
2022/03/06 12:33:56;;;;;;;14.13;4.57;;;5.30;99.90;;;;;;5096196;28;20053;-74
2022/03/06 12:36:24;;;;;;;12.50;4.38;;;5.40;99.90;;;;;;5082961;28;20051;-75
2022/03/06 12:38:59;;;;;;;10.25;4.05;;;5.40;99.80;;;;;;5115045;28;20047;-74